sensor_id;sensor_type;location;lat;lon;timestamp;pressure;altitude;pressure_sealevel;temperature;humidity
32456;BME280;18912;43.270;27.942;2023-04-27T00:01:10;97514.66;;;14.95;56.77
32456;BME280;18912;43.270;27.942;2023-04-27T00:03:36;97508.41;;;14.94;56.84
32456;BME280;18912;43.270;27.942;2023-04-27T00:06:01;97514.00;;;14.88;56.96
32456;BME280;18912;43.270;27.942;2023-04-27T00:08:27;97506.97;;;15.09;56.52
32456;BME280;18912;43.270;27.942;2023-04-27T00:10:53;97517.19;;;15.18;56.40
32456;BME280;18912;43.270;27.942;2023-04-27T00:13:18;97521.25;;;15.16;55.91
32456;BME280;18912;43.270;27.942;2023-04-27T00:15:43;97516.72;;;15.43;55.00
32456;BME280;18912;43.270;27.942;2023-04-27T00:18:09;97517.84;;;15.25;54.98
32456;BME280;18912;43.270;27.942;2023-04-27T00:20:35;97518.91;;;15.24;54.97
32456;BME280;18912;43.270;27.942;2023-04-27T00:23:00;97527.13;;;15.46;54.44
32456;BME280;18912;43.270;27.942;2023-04-27T00:25:25;97523.78;;;15.22;53.89
32456;BME280;18912;43.270;27.942;2023-04-27T00:27:51;97528.28;;;14.78;54.40
32456;BME280;18912;43.270;27.942;2023-04-27T00:30:16;97527.97;;;15.30;53.44
32456;BME280;18912;43.270;27.942;2023-04-27T00:32:41;97529.38;;;15.70;51.68
32456;BME280;18912;43.270;27.942;2023-04-27T00:35:06;97531.69;;;15.62;51.61
32456;BME280;18912;43.270;27.942;2023-04-27T00:37:32;97532.84;;;15.66;51.06
32456;BME280;18912;43.270;27.942;2023-04-27T00:39:57;97543.03;;;15.97;50.48
32456;BME280;18912;43.270;27.942;2023-04-27T00:42:22;97543.09;;;16.02;50.19
32456;BME280;18912;43.270;27.942;2023-04-27T00:44:49;97552.72;;;15.88;50.36
32456;BME280;18912;43.270;27.942;2023-04-27T00:47:14;97545.56;;;16.04;49.87
32456;BME280;18912;43.270;27.942;2023-04-27T00:49:41;97547.44;;;16.25;49.31
32456;BME280;18912;43.270;27.942;2023-04-27T00:52:06;97553.44;;;15.57;49.96
32456;BME280;18912;43.270;27.942;2023-04-27T00:54:31;97554.63;;;15.66;50.00
32456;BME280;18912;43.270;27.942;2023-04-27T00:56:57;97566.41;;;15.50;50.30
32456;BME280;18912;43.270;27.942;2023-04-27T00:59:23;97564.56;;;15.39;50.03
32456;BME280;18912;43.270;27.942;2023-04-27T01:01:49;97565.47;;;15.82;49.19
32456;BME280;18912;43.270;27.942;2023-04-27T01:04:15;97576.13;;;15.84;49.01
32456;BME280;18912;43.270;27.942;2023-04-27T01:06:43;97569.72;;;15.95;48.41
32456;BME280;18912;43.270;27.942;2023-04-27T01:09:08;97572.47;;;15.95;48.18
32456;BME280;18912;43.270;27.942;2023-04-27T01:11:35;97571.50;;;15.84;48.25
32456;BME280;18912;43.270;27.942;2023-04-27T01:14:04;97565.13;;;15.02;49.05
32456;BME280;18912;43.270;27.942;2023-04-27T01:16:33;97565.28;;;15.46;48.37
32456;BME280;18912;43.270;27.942;2023-04-27T01:18:59;97562.50;;;15.08;48.88
32456;BME280;18912;43.270;27.942;2023-04-27T01:21:25;97564.03;;;15.20;48.65
32456;BME280;18912;43.270;27.942;2023-04-27T01:23:50;97554.72;;;15.16;48.56
32456;BME280;18912;43.270;27.942;2023-04-27T01:26:15;97559.88;;;15.51;48.15
32456;BME280;18912;43.270;27.942;2023-04-27T01:28:41;97552.81;;;15.50;48.00
32456;BME280;18912;43.270;27.942;2023-04-27T01:31:06;97547.41;;;15.55;48.14
32456;BME280;18912;43.270;27.942;2023-04-27T01:33:32;97555.38;;;15.23;48.86
32456;BME280;18912;43.270;27.942;2023-04-27T01:35:57;97553.69;;;15.39;48.87
32456;BME280;18912;43.270;27.942;2023-04-27T01:38:22;97556.50;;;14.89;49.89
32456;BME280;18912;43.270;27.942;2023-04-27T01:40:48;97564.88;;;15.21;49.21
32456;BME280;18912;43.270;27.942;2023-04-27T01:43:13;97559.34;;;15.16;49.29
32456;BME280;18912;43.270;27.942;2023-04-27T01:45:38;97559.09;;;14.67;49.95
32456;BME280;18912;43.270;27.942;2023-04-27T01:48:04;97561.16;;;14.93;49.70
32456;BME280;18912;43.270;27.942;2023-04-27T01:50:29;97568.50;;;14.60;49.79
32456;BME280;18912;43.270;27.942;2023-04-27T01:52:54;97576.19;;;14.79;50.20
32456;BME280;18912;43.270;27.942;2023-04-27T01:55:20;97578.28;;;14.44;49.70
32456;BME280;18912;43.270;27.942;2023-04-27T01:57:45;97577.63;;;14.37;50.22
32456;BME280;18912;43.270;27.942;2023-04-27T02:00:11;97583.09;;;14.70;49.41
32456;BME280;18912;43.270;27.942;2023-04-27T02:02:36;97583.31;;;14.52;49.51
32456;BME280;18912;43.270;27.942;2023-04-27T02:05:02;97583.16;;;14.59;49.23
32456;BME280;18912;43.270;27.942;2023-04-27T02:07:28;97583.06;;;14.26;49.81
32456;BME280;18912;43.270;27.942;2023-04-27T02:09:53;97589.22;;;14.77;48.73
32456;BME280;18912;43.270;27.942;2023-04-27T02:12:19;97596.25;;;14.45;49.36
32456;BME280;18912;43.270;27.942;2023-04-27T02:14:44;97583.09;;;14.70;48.61
32456;BME280;18912;43.270;27.942;2023-04-27T02:17:10;97589.38;;;14.87;48.29
32456;BME280;18912;43.270;27.942;2023-04-27T02:19:35;97594.59;;;14.44;48.75
32456;BME280;18912;43.270;27.942;2023-04-27T02:22:00;97599.66;;;14.52;48.61
32456;BME280;18912;43.270;27.942;2023-04-27T02:24:26;97604.81;;;14.37;49.07
32456;BME280;18912;43.270;27.942;2023-04-27T02:26:51;97605.66;;;13.86;49.73
32456;BME280;18912;43.270;27.942;2023-04-27T02:29:16;97609.34;;;14.20;49.25
32456;BME280;18912;43.270;27.942;2023-04-27T02:31:42;97606.66;;;13.69;50.13
32456;BME280;18912;43.270;27.942;2023-04-27T02:34:07;97621.53;;;14.06;49.58
32456;BME280;18912;43.270;27.942;2023-04-27T02:36:33;97612.31;;;13.79;49.55
32456;BME280;18912;43.270;27.942;2023-04-27T02:38:58;97619.94;;;13.93;49.54
32456;BME280;18912;43.270;27.942;2023-04-27T02:41:23;97609.56;;;14.30;48.52
32456;BME280;18912;43.270;27.942;2023-04-27T02:43:51;97608.56;;;14.36;48.67
32456;BME280;18912;43.270;27.942;2023-04-27T02:46:17;97613.72;;;14.09;49.28
32456;BME280;18912;43.270;27.942;2023-04-27T02:48:42;97624.88;;;13.96;49.54
32456;BME280;18912;43.270;27.942;2023-04-27T02:51:07;97626.44;;;14.60;48.38
32456;BME280;18912;43.270;27.942;2023-04-27T02:53:33;97622.66;;;14.33;48.84
32456;BME280;18912;43.270;27.942;2023-04-27T02:55:58;97618.59;;;14.47;48.43
32456;BME280;18912;43.270;27.942;2023-04-27T02:58:23;97623.09;;;14.42;48.60
32456;BME280;18912;43.270;27.942;2023-04-27T03:00:55;97620.69;;;14.73;48.09
32456;BME280;18912;43.270;27.942;2023-04-27T03:03:21;97631.53;;;14.17;48.62
32456;BME280;18912;43.270;27.942;2023-04-27T03:05:46;97627.19;;;14.16;48.64
32456;BME280;18912;43.270;27.942;2023-04-27T03:08:12;97626.84;;;13.73;49.27
32456;BME280;18912;43.270;27.942;2023-04-27T03:10:37;97628.19;;;14.27;48.69
32456;BME280;18912;43.270;27.942;2023-04-27T03:13:02;97635.47;;;13.24;50.52
32456;BME280;18912;43.270;27.942;2023-04-27T03:15:27;97627.09;;;13.13;50.84
32456;BME280;18912;43.270;27.942;2023-04-27T03:17:53;97618.06;;;12.90;51.31
32456;BME280;18912;43.270;27.942;2023-04-27T03:20:18;97624.19;;;12.85;51.47
32456;BME280;18912;43.270;27.942;2023-04-27T03:22:43;97630.44;;;12.74;52.07
32456;BME280;18912;43.270;27.942;2023-04-27T03:25:10;97628.06;;;12.78;52.04
32456;BME280;18912;43.270;27.942;2023-04-27T03:27:35;97626.97;;;13.32;51.06
32456;BME280;18912;43.270;27.942;2023-04-27T03:30:01;97626.44;;;12.88;51.65
32456;BME280;18912;43.270;27.942;2023-04-27T03:32:27;97614.03;;;12.81;51.89
32456;BME280;18912;43.270;27.942;2023-04-27T03:34:52;97624.44;;;12.84;51.90
32456;BME280;18912;43.270;27.942;2023-04-27T03:37:18;97627.56;;;12.69;52.41
32456;BME280;18912;43.270;27.942;2023-04-27T03:39:43;97623.28;;;12.91;51.74
32456;BME280;18912;43.270;27.942;2023-04-27T03:42:09;97628.03;;;13.07;51.28
32456;BME280;18912;43.270;27.942;2023-04-27T03:44:34;97628.75;;;13.03;51.35
32456;BME280;18912;43.270;27.942;2023-04-27T03:47:00;97626.44;;;12.88;52.05
32456;BME280;18912;43.270;27.942;2023-04-27T03:49:26;97648.41;;;12.98;51.86
32456;BME280;18912;43.270;27.942;2023-04-27T03:51:51;97647.97;;;13.25;51.77
32456;BME280;18912;43.270;27.942;2023-04-27T03:54:17;97646.22;;;12.77;52.25
32456;BME280;18912;43.270;27.942;2023-04-27T03:56:42;97656.47;;;13.17;51.84
32456;BME280;18912;43.270;27.942;2023-04-27T03:59:08;97650.94;;;13.46;51.54
32456;BME280;18912;43.270;27.942;2023-04-27T04:01:34;97661.22;;;13.33;51.11
32456;BME280;18912;43.270;27.942;2023-04-27T04:04:00;97653.91;;;13.33;51.10
32456;BME280;18912;43.270;27.942;2023-04-27T04:06:25;97665.56;;;13.34;51.23
32456;BME280;18912;43.270;27.942;2023-04-27T04:08:52;97654.09;;;13.55;50.17
32456;BME280;18912;43.270;27.942;2023-04-27T04:11:17;97669.22;;;13.74;49.92
32456;BME280;18912;43.270;27.942;2023-04-27T04:13:42;97673.00;;;13.50;50.50
32456;BME280;18912;43.270;27.942;2023-04-27T04:16:08;97674.06;;;13.49;50.30
32456;BME280;18912;43.270;27.942;2023-04-27T04:18:34;97666.72;;;13.14;51.08
32456;BME280;18912;43.270;27.942;2023-04-27T04:21:00;97677.38;;;13.51;50.63
32456;BME280;18912;43.270;27.942;2023-04-27T04:23:26;97680.56;;;13.71;50.64
32456;BME280;18912;43.270;27.942;2023-04-27T04:25:52;97684.47;;;13.63;50.72
32456;BME280;18912;43.270;27.942;2023-04-27T04:28:18;97680.56;;;13.71;50.21
32456;BME280;18912;43.270;27.942;2023-04-27T04:30:43;97686.91;;;13.99;49.95
32456;BME280;18912;43.270;27.942;2023-04-27T04:33:09;97682.19;;;13.95;49.83
32456;BME280;18912;43.270;27.942;2023-04-27T04:35:37;97680.56;;;13.71;50.24
32456;BME280;18912;43.270;27.942;2023-04-27T04:38:03;97689.50;;;13.83;49.59
32456;BME280;18912;43.270;27.942;2023-04-27T04:40:28;97688.34;;;13.79;49.92
32456;BME280;18912;43.270;27.942;2023-04-27T04:42:54;97699.28;;;14.19;49.03
32456;BME280;18912;43.270;27.942;2023-04-27T04:45:19;97682.41;;;14.05;48.91
32456;BME280;18912;43.270;27.942;2023-04-27T04:47:45;97697.66;;;13.94;49.18
32456;BME280;18912;43.270;27.942;2023-04-27T04:50:11;97704.91;;;14.40;48.63
32456;BME280;18912;43.270;27.942;2023-04-27T04:52:37;97703.56;;;14.54;48.43
32456;BME280;18912;43.270;27.942;2023-04-27T04:55:02;97706.16;;;14.89;48.17
32456;BME280;18912;43.270;27.942;2023-04-27T04:57:28;97705.63;;;14.75;48.43
32456;BME280;18912;43.270;27.942;2023-04-27T04:59:54;97711.09;;;14.36;48.31
32456;BME280;18912;43.270;27.942;2023-04-27T05:02:19;97701.06;;;14.13;48.74
32456;BME280;18912;43.270;27.942;2023-04-27T05:04:44;97710.25;;;14.35;48.53
32456;BME280;18912;43.270;27.942;2023-04-27T05:07:10;97699.28;;;14.30;48.92
32456;BME280;18912;43.270;27.942;2023-04-27T05:09:36;97692.03;;;14.47;48.75
32456;BME280;18912;43.270;27.942;2023-04-27T05:12:01;97689.88;;;14.49;48.81
32456;BME280;18912;43.270;27.942;2023-04-27T05:14:26;97697.03;;;14.27;49.36
32456;BME280;18912;43.270;27.942;2023-04-27T05:16:52;97690.34;;;13.72;49.60
32456;BME280;18912;43.270;27.942;2023-04-27T05:19:17;97691.00;;;14.14;49.75
32456;BME280;18912;43.270;27.942;2023-04-27T05:21:44;97687.53;;;14.41;49.06
32456;BME280;18912;43.270;27.942;2023-04-27T05:24:10;97689.03;;;14.09;49.72
32456;BME280;18912;43.270;27.942;2023-04-27T05:26:35;97694.38;;;14.44;48.92
32456;BME280;18912;43.270;27.942;2023-04-27T05:29:00;97694.00;;;14.52;49.21
32456;BME280;18912;43.270;27.942;2023-04-27T05:31:26;97695.59;;;14.92;48.65
32456;BME280;18912;43.270;27.942;2023-04-27T05:33:51;97688.47;;;15.36;47.91
32456;BME280;18912;43.270;27.942;2023-04-27T05:36:17;97690.31;;;15.02;48.01
32456;BME280;18912;43.270;27.942;2023-04-27T05:38:42;97694.44;;;14.88;48.01
32456;BME280;18912;43.270;27.942;2023-04-27T05:41:07;97692.81;;;15.04;48.53
32456;BME280;18912;43.270;27.942;2023-04-27T05:43:33;97690.19;;;14.64;48.59
32456;BME280;18912;43.270;27.942;2023-04-27T05:45:59;97684.13;;;14.90;48.13
32456;BME280;18912;43.270;27.942;2023-04-27T05:48:24;97684.97;;;14.63;47.94
32456;BME280;18912;43.270;27.942;2023-04-27T05:50:57;97686.06;;;14.78;48.04
32456;BME280;18912;43.270;27.942;2023-04-27T05:53:23;97692.50;;;15.17;47.00
32456;BME280;18912;43.270;27.942;2023-04-27T05:55:48;97689.63;;;15.57;46.69
32456;BME280;18912;43.270;27.942;2023-04-27T05:58:13;97698.53;;;15.85;46.70
32456;BME280;18912;43.270;27.942;2023-04-27T06:00:39;97698.41;;;14.97;47.13
32456;BME280;18912;43.270;27.942;2023-04-27T06:03:04;97697.09;;;15.17;47.15
32456;BME280;18912;43.270;27.942;2023-04-27T06:05:29;97705.94;;;15.24;46.87
32456;BME280;18912;43.270;27.942;2023-04-27T06:07:55;97704.97;;;14.85;47.60
32456;BME280;18912;43.270;27.942;2023-04-27T06:10:20;97714.16;;;15.57;46.99
32456;BME280;18912;43.270;27.942;2023-04-27T06:12:45;97714.34;;;15.88;46.58
32456;BME280;18912;43.270;27.942;2023-04-27T06:15:11;97714.78;;;15.97;45.61
32456;BME280;18912;43.270;27.942;2023-04-27T06:17:37;97719.06;;;15.27;45.65
32456;BME280;18912;43.270;27.942;2023-04-27T06:20:03;97710.59;;;16.11;45.28
32456;BME280;18912;43.270;27.942;2023-04-27T06:22:31;97728.97;;;16.37;45.19
32456;BME280;18912;43.270;27.942;2023-04-27T06:24:56;97728.19;;;16.20;44.31
32456;BME280;18912;43.270;27.942;2023-04-27T06:27:21;97735.22;;;15.17;45.83
32456;BME280;18912;43.270;27.942;2023-04-27T06:29:47;97730.44;;;16.28;44.45
32456;BME280;18912;43.270;27.942;2023-04-27T06:32:12;97727.66;;;16.23;43.67
32456;BME280;18912;43.270;27.942;2023-04-27T06:34:37;97744.44;;;15.60;44.75
32456;BME280;18912;43.270;27.942;2023-04-27T06:37:02;97744.47;;;15.32;44.78
32456;BME280;18912;43.270;27.942;2023-04-27T06:39:28;97750.00;;;16.20;44.49
32456;BME280;18912;43.270;27.942;2023-04-27T06:41:53;97750.53;;;16.39;43.55
32456;BME280;18912;43.270;27.942;2023-04-27T06:44:19;97750.22;;;16.78;43.45
32456;BME280;18912;43.270;27.942;2023-04-27T06:46:44;97749.28;;;16.08;42.82
32456;BME280;18912;43.270;27.942;2023-04-27T06:49:09;97752.81;;;16.47;43.09
32456;BME280;18912;43.270;27.942;2023-04-27T06:51:35;97752.16;;;16.40;42.64
32456;BME280;18912;43.270;27.942;2023-04-27T06:54:01;97749.66;;;16.98;42.37
32456;BME280;18912;43.270;27.942;2023-04-27T06:56:26;97746.19;;;16.81;41.85
32456;BME280;18912;43.270;27.942;2023-04-27T06:58:51;97753.44;;;16.97;42.05
32456;BME280;18912;43.270;27.942;2023-04-27T07:01:17;97749.38;;;17.26;41.72
32456;BME280;18912;43.270;27.942;2023-04-27T07:03:42;97750.75;;;16.54;42.32
32456;BME280;18912;43.270;27.942;2023-04-27T07:06:07;97761.28;;;16.29;42.59
32456;BME280;18912;43.270;27.942;2023-04-27T07:08:34;97749.78;;;16.87;41.97
32456;BME280;18912;43.270;27.942;2023-04-27T07:11:00;97752.47;;;16.43;42.37
32456;BME280;18912;43.270;27.942;2023-04-27T07:13:26;97749.13;;;16.79;41.97
32456;BME280;18912;43.270;27.942;2023-04-27T07:15:54;97753.63;;;16.47;42.03
32456;BME280;18912;43.270;27.942;2023-04-27T07:18:22;97762.44;;;16.33;41.69
32456;BME280;18912;43.270;27.942;2023-04-27T07:20:48;97755.09;;;16.33;41.81
32456;BME280;18912;43.270;27.942;2023-04-27T07:23:13;97742.91;;;16.41;41.20
32456;BME280;18912;43.270;27.942;2023-04-27T07:25:38;97753.91;;;16.67;41.40
32456;BME280;18912;43.270;27.942;2023-04-27T07:28:04;97760.00;;;16.74;41.12
32456;BME280;18912;43.270;27.942;2023-04-27T07:30:29;97760.31;;;17.00;41.16
32456;BME280;18912;43.270;27.942;2023-04-27T07:32:55;97754.78;;;16.51;41.22
32456;BME280;18912;43.270;27.942;2023-04-27T07:35:20;97763.25;;;16.71;41.32
32456;BME280;18912;43.270;27.942;2023-04-27T07:37:46;97762.50;;;17.03;40.78
32456;BME280;18912;43.270;27.942;2023-04-27T07:40:12;97761.31;;;16.94;40.97
32456;BME280;18912;43.270;27.942;2023-04-27T07:42:40;97766.34;;;17.55;40.75
32456;BME280;18912;43.270;27.942;2023-04-27T07:45:06;97770.34;;;17.47;40.80
32456;BME280;18912;43.270;27.942;2023-04-27T07:47:32;97771.56;;;18.30;39.95
32456;BME280;18912;43.270;27.942;2023-04-27T07:49:57;97768.31;;;18.38;37.50
32456;BME280;18912;43.270;27.942;2023-04-27T07:52:22;97771.34;;;18.41;37.58
32456;BME280;18912;43.270;27.942;2023-04-27T07:54:48;97775.31;;;18.65;37.93
32456;BME280;18912;43.270;27.942;2023-04-27T07:57:13;97770.53;;;18.98;36.24
32456;BME280;18912;43.270;27.942;2023-04-27T07:59:38;97780.34;;;18.84;36.37
32456;BME280;18912;43.270;27.942;2023-04-27T08:02:04;97774.47;;;19.32;37.74
32456;BME280;18912;43.270;27.942;2023-04-27T08:04:29;97784.13;;;19.44;36.71
32456;BME280;18912;43.270;27.942;2023-04-27T08:06:55;97783.81;;;19.36;36.29
32456;BME280;18912;43.270;27.942;2023-04-27T08:09:20;97779.66;;;19.23;36.34
32456;BME280;18912;43.270;27.942;2023-04-27T08:11:46;97782.66;;;19.22;36.48
32456;BME280;18912;43.270;27.942;2023-04-27T08:14:11;97789.34;;;20.06;35.76
32456;BME280;18912;43.270;27.942;2023-04-27T08:16:40;97769.34;;;20.26;35.63
32456;BME280;18912;43.270;27.942;2023-04-27T08:19:05;97793.84;;;20.96;35.44
32456;BME280;18912;43.270;27.942;2023-04-27T08:21:31;97794.34;;;21.13;34.15
32456;BME280;18912;43.270;27.942;2023-04-27T08:23:56;97786.94;;;21.09;33.62
32456;BME280;18912;43.270;27.942;2023-04-27T08:26:22;97792.09;;;21.25;33.97
32456;BME280;18912;43.270;27.942;2023-04-27T08:28:47;97787.09;;;21.32;33.47
32456;BME280;18912;43.270;27.942;2023-04-27T08:31:13;97802.16;;;20.71;34.01
32456;BME280;18912;43.270;27.942;2023-04-27T08:33:38;97802.22;;;20.51;33.94
32456;BME280;18912;43.270;27.942;2023-04-27T08:36:04;97807.63;;;20.81;33.63
32456;BME280;18912;43.270;27.942;2023-04-27T08:38:29;97798.50;;;20.96;33.54
32456;BME280;18912;43.270;27.942;2023-04-27T08:40:55;97796.22;;;20.39;33.60
32456;BME280;18912;43.270;27.942;2023-04-27T08:43:20;97795.94;;;20.35;33.62
32456;BME280;18912;43.270;27.942;2023-04-27T08:45:46;97792.63;;;20.38;34.01
32456;BME280;18912;43.270;27.942;2023-04-27T08:48:12;97786.44;;;20.92;34.37
32456;BME280;18912;43.270;27.942;2023-04-27T08:50:37;97793.19;;;19.95;34.09
32456;BME280;18912;43.270;27.942;2023-04-27T08:53:04;97779.47;;;20.35;34.81
32456;BME280;18912;43.270;27.942;2023-04-27T08:55:29;97768.78;;;19.99;35.15
32456;BME280;18912;43.270;27.942;2023-04-27T08:57:55;97767.69;;;19.90;34.65
32456;BME280;18912;43.270;27.942;2023-04-27T09:00:21;97759.38;;;20.55;33.86
32456;BME280;18912;43.270;27.942;2023-04-27T09:02:46;97757.81;;;20.98;33.94
32456;BME280;18912;43.270;27.942;2023-04-27T09:05:19;97751.66;;;22.03;33.38
32456;BME280;18912;43.270;27.942;2023-04-27T09:07:57;97750.78;;;22.08;32.13
32456;BME280;18912;43.270;27.942;2023-04-27T09:10:22;97743.47;;;22.51;32.12
32456;BME280;18912;43.270;27.942;2023-04-27T09:12:55;97746.91;;;23.27;32.00
32456;BME280;18912;43.270;27.942;2023-04-27T09:15:20;97747.19;;;23.49;31.53
32456;BME280;18912;43.270;27.942;2023-04-27T09:17:51;97751.88;;;23.49;30.69
32456;BME280;18912;43.270;27.942;2023-04-27T09:20:16;97762.56;;;23.13;30.73
32456;BME280;18912;43.270;27.942;2023-04-27T09:22:46;97758.16;;;23.54;30.88
32456;BME280;18912;43.270;27.942;2023-04-27T09:25:21;97774.78;;;23.31;30.23
32456;BME280;18912;43.270;27.942;2023-04-27T09:27:47;97757.31;;;22.93;30.39
32456;BME280;18912;43.270;27.942;2023-04-27T09:30:13;97762.78;;;23.16;31.04
32456;BME280;18912;43.270;27.942;2023-04-27T09:32:38;97755.63;;;23.39;30.65
32456;BME280;18912;43.270;27.942;2023-04-27T09:35:04;97764.69;;;22.74;31.50
32456;BME280;18912;43.270;27.942;2023-04-27T09:37:40;97753.22;;;22.90;31.31
32456;BME280;18912;43.270;27.942;2023-04-27T09:40:05;97751.66;;;22.56;31.84
32456;BME280;18912;43.270;27.942;2023-04-27T09:42:31;97748.50;;;23.52;32.07
32456;BME280;18912;43.270;27.942;2023-04-27T09:44:57;97735.94;;;22.09;32.00
32456;BME280;18912;43.270;27.942;2023-04-27T09:47:23;97737.50;;;21.86;32.42
32456;BME280;18912;43.270;27.942;2023-04-27T09:49:52;97743.69;;;22.30;32.20
32456;BME280;18912;43.270;27.942;2023-04-27T09:52:17;97756.03;;;22.85;31.66
32456;BME280;18912;43.270;27.942;2023-04-27T09:54:43;97755.09;;;23.37;32.17
32456;BME280;18912;43.270;27.942;2023-04-27T09:57:16;97754.94;;;23.47;31.55
32456;BME280;18912;43.270;27.942;2023-04-27T10:02:23;97756.47;;;23.16;31.59
32456;BME280;18912;43.270;27.942;2023-04-27T10:07:25;97753.03;;;23.98;31.26
32456;BME280;18912;43.270;27.942;2023-04-27T10:09:51;97758.53;;;23.98;30.62
32456;BME280;18912;43.270;27.942;2023-04-27T10:14:55;97763.47;;;23.27;31.66
32456;BME280;18912;43.270;27.942;2023-04-27T10:17:32;97764.31;;;22.62;31.61
32456;BME280;18912;43.270;27.942;2023-04-27T10:19:59;97763.22;;;23.47;31.94
32456;BME280;18912;43.270;27.942;2023-04-27T10:22:38;97772.44;;;23.75;30.99
32456;BME280;18912;43.270;27.942;2023-04-27T10:25:17;97766.66;;;23.76;30.49
32456;BME280;18912;43.270;27.942;2023-04-27T10:27:47;97771.25;;;23.25;31.44
32456;BME280;18912;43.270;27.942;2023-04-27T10:30:13;97774.03;;;23.20;31.90
32456;BME280;18912;43.270;27.942;2023-04-27T10:32:48;97778.09;;;22.62;31.70
32456;BME280;18912;43.270;27.942;2023-04-27T10:35:14;97781.88;;;23.13;31.73
32456;BME280;18912;43.270;27.942;2023-04-27T10:37:42;97784.16;;;22.59;31.13
32456;BME280;18912;43.270;27.942;2023-04-27T10:40:08;97781.06;;;22.37;31.33
32456;BME280;18912;43.270;27.942;2023-04-27T10:42:34;97779.00;;;22.76;31.36
32456;BME280;18912;43.270;27.942;2023-04-27T10:44:59;97782.97;;;22.70;31.81
32456;BME280;18912;43.270;27.942;2023-04-27T10:47:35;97792.50;;;22.77;31.78
32456;BME280;18912;43.270;27.942;2023-04-27T10:50:00;97786.19;;;22.19;31.67
32456;BME280;18912;43.270;27.942;2023-04-27T10:52:26;97804.16;;;22.12;32.58
32456;BME280;18912;43.270;27.942;2023-04-27T10:54:52;97801.78;;;22.29;32.85
32456;BME280;18912;43.270;27.942;2023-04-27T10:57:17;97802.50;;;22.68;33.00
32456;BME280;18912;43.270;27.942;2023-04-27T11:00:00;97804.47;;;22.39;32.19
32456;BME280;18912;43.270;27.942;2023-04-27T11:02:26;97799.47;;;22.41;32.52
32456;BME280;18912;43.270;27.942;2023-04-27T11:04:53;97792.25;;;23.21;31.80
32456;BME280;18912;43.270;27.942;2023-04-27T11:07:25;97787.94;;;22.68;31.04
32456;BME280;18912;43.270;27.942;2023-04-27T11:09:51;97787.81;;;23.01;32.06
32456;BME280;18912;43.270;27.942;2023-04-27T11:12:17;97796.22;;;23.10;32.45
32456;BME280;18912;43.270;27.942;2023-04-27T11:14:42;97785.78;;;22.88;32.96
32456;BME280;18912;43.270;27.942;2023-04-27T11:17:08;97791.69;;;22.77;31.94
32456;BME280;18912;43.270;27.942;2023-04-27T11:19:42;97787.56;;;22.46;33.90
32456;BME280;18912;43.270;27.942;2023-04-27T11:22:08;97798.06;;;22.44;32.15
32456;BME280;18912;43.270;27.942;2023-04-27T11:24:33;97794.38;;;22.82;32.24
32456;BME280;18912;43.270;27.942;2023-04-27T11:26:58;97800.63;;;22.35;32.78
32456;BME280;18912;43.270;27.942;2023-04-27T11:29:24;97798.00;;;23.01;32.11
32456;BME280;18912;43.270;27.942;2023-04-27T11:31:49;97792.63;;;22.67;32.30
32456;BME280;18912;43.270;27.942;2023-04-27T11:34:16;97790.81;;;23.23;31.38
32456;BME280;18912;43.270;27.942;2023-04-27T11:36:41;97804.91;;;23.22;31.75
32456;BME280;18912;43.270;27.942;2023-04-27T11:39:07;97805.91;;;22.32;31.15
32456;BME280;18912;43.270;27.942;2023-04-27T11:41:34;97791.63;;;21.57;32.11
32456;BME280;18912;43.270;27.942;2023-04-27T11:44:03;97801.97;;;21.70;34.25
32456;BME280;18912;43.270;27.942;2023-04-27T11:46:29;97808.63;;;22.03;32.59
32456;BME280;18912;43.270;27.942;2023-04-27T11:49:00;97804.34;;;22.49;32.54
32456;BME280;18912;43.270;27.942;2023-04-27T11:51:25;97802.13;;;21.89;32.72
32456;BME280;18912;43.270;27.942;2023-04-27T11:53:50;97806.44;;;22.34;32.27
32456;BME280;18912;43.270;27.942;2023-04-27T11:56:16;97817.91;;;22.12;32.58
32456;BME280;18912;43.270;27.942;2023-04-27T11:58:42;97810.66;;;22.26;32.04
32456;BME280;18912;43.270;27.942;2023-04-27T12:01:08;97817.31;;;22.20;31.87
32456;BME280;18912;43.270;27.942;2023-04-27T12:03:34;97810.09;;;21.90;31.46
32456;BME280;18912;43.270;27.942;2023-04-27T12:06:00;97810.91;;;22.58;32.49
32456;BME280;18912;43.270;27.942;2023-04-27T12:08:25;97820.84;;;22.54;32.39
32456;BME280;18912;43.270;27.942;2023-04-27T12:10:51;97817.47;;;22.86;32.45
32456;BME280;18912;43.270;27.942;2023-04-27T12:13:16;97821.38;;;23.27;31.51
32456;BME280;18912;43.270;27.942;2023-04-27T12:15:41;97821.38;;;23.69;30.85
32456;BME280;18912;43.270;27.942;2023-04-27T12:18:07;97831.25;;;23.33;30.40
32456;BME280;18912;43.270;27.942;2023-04-27T12:20:33;97823.09;;;22.76;31.75
32456;BME280;18912;43.270;27.942;2023-04-27T12:22:58;97811.16;;;22.62;31.77
32456;BME280;18912;43.270;27.942;2023-04-27T12:25:24;97821.56;;;23.12;31.45
32456;BME280;18912;43.270;27.942;2023-04-27T12:27:49;97824.97;;;23.28;31.47
32456;BME280;18912;43.270;27.942;2023-04-27T12:30:15;97833.19;;;23.93;32.01
32456;BME280;18912;43.270;27.942;2023-04-27T12:32:41;97820.78;;;23.72;31.93
32456;BME280;18912;43.270;27.942;2023-04-27T12:35:06;97815.44;;;22.96;30.35
32456;BME280;18912;43.270;27.942;2023-04-27T12:37:32;97819.13;;;23.34;31.83
32456;BME280;18912;43.270;27.942;2023-04-27T12:39:58;97816.28;;;23.39;30.37
32456;BME280;18912;43.270;27.942;2023-04-27T12:42:23;97825.00;;;23.04;31.28
32456;BME280;18912;43.270;27.942;2023-04-27T12:44:49;97828.25;;;23.72;32.02
32456;BME280;18912;43.270;27.942;2023-04-27T12:47:15;97825.53;;;23.48;30.44
32456;BME280;18912;43.270;27.942;2023-04-27T12:49:40;97843.63;;;23.12;30.98
32456;BME280;18912;43.270;27.942;2023-04-27T12:52:06;97836.09;;;22.13;31.43